sensor_id;sensor_type;location;lat;lon;timestamp;temperature;humidity
56498;DHT22;51790;45.558;12.076;2022-10-30T00:04:23;13.60;88.70
56498;DHT22;51790;45.558;12.076;2022-10-30T00:10:24;13.50;89.10
56498;DHT22;51790;45.558;12.076;2022-10-30T00:16:25;13.40;90.00
56498;DHT22;51790;45.558;12.076;2022-10-30T00:22:27;13.50;90.20
56498;DHT22;51790;45.558;12.076;2022-10-30T00:28:28;13.20;89.20
56498;DHT22;51790;45.558;12.076;2022-10-30T00:34:30;13.30;89.00
56498;DHT22;51790;45.558;12.076;2022-10-30T00:40:31;13.30;88.40
56498;DHT22;51790;45.558;12.076;2022-10-30T00:46:34;13.30;88.50
56498;DHT22;51790;45.558;12.076;2022-10-30T00:52:38;13.20;88.60
56498;DHT22;51790;45.558;12.076;2022-10-30T00:58:41;13.20;88.60
56498;DHT22;51790;45.558;12.076;2022-10-30T01:04:44;13.20;88.70
56498;DHT22;51790;45.558;12.076;2022-10-30T01:10:47;13.20;88.90
56498;DHT22;51790;45.558;12.076;2022-10-30T01:16:54;13.20;89.00
56498;DHT22;51790;45.558;12.076;2022-10-30T01:35:22;13.20;88.70
56498;DHT22;51790;45.558;12.076;2022-10-30T01:41:27;13.10;88.40
56498;DHT22;51790;45.558;12.076;2022-10-30T01:59:41;12.80;88.60
56498;DHT22;51790;45.558;12.076;2022-10-30T02:05:45;12.70;88.80
56498;DHT22;51790;45.558;12.076;2022-10-30T02:11:48;12.80;88.30
56498;DHT22;51790;45.558;12.076;2022-10-30T02:17:50;12.80;88.40
56498;DHT22;51790;45.558;12.076;2022-10-30T02:23:52;12.70;88.20
56498;DHT22;51790;45.558;12.076;2022-10-30T02:29:55;12.70;88.20
56498;DHT22;51790;45.558;12.076;2022-10-30T02:35:56;12.60;88.30
56498;DHT22;51790;45.558;12.076;2022-10-30T02:41:57;12.60;88.20
56498;DHT22;51790;45.558;12.076;2022-10-30T02:48:02;12.60;88.00
56498;DHT22;51790;45.558;12.076;2022-10-30T02:54:04;12.60;88.00
56498;DHT22;51790;45.558;12.076;2022-10-30T03:00:05;12.40;88.30
56498;DHT22;51790;45.558;12.076;2022-10-30T03:06:08;12.30;89.10
56498;DHT22;51790;45.558;12.076;2022-10-30T03:12:10;12.40;88.70
56498;DHT22;51790;45.558;12.076;2022-10-30T03:18:11;12.30;88.30
56498;DHT22;51790;45.558;12.076;2022-10-30T03:24:15;12.20;88.90
56498;DHT22;51790;45.558;12.076;2022-10-30T03:30:18;12.30;88.20
56498;DHT22;51790;45.558;12.076;2022-10-30T03:36:21;12.20;88.40
56498;DHT22;51790;45.558;12.076;2022-10-30T03:42:23;12.20;88.50
56498;DHT22;51790;45.558;12.076;2022-10-30T03:48:26;12.20;88.10
56498;DHT22;51790;45.558;12.076;2022-10-30T03:54:29;12.30;88.00
56498;DHT22;51790;45.558;12.076;2022-10-30T04:00:30;12.10;88.10
56498;DHT22;51790;45.558;12.076;2022-10-30T04:06:33;12.10;88.00
56498;DHT22;51790;45.558;12.076;2022-10-30T04:12:35;12.10;88.40
56498;DHT22;51790;45.558;12.076;2022-10-30T04:18:37;11.90;88.60
56498;DHT22;51790;45.558;12.076;2022-10-30T04:24:39;11.80;88.80
56498;DHT22;51790;45.558;12.076;2022-10-30T04:30:41;11.90;88.50
56498;DHT22;51790;45.558;12.076;2022-10-30T04:36:42;11.70;89.10
56498;DHT22;51790;45.558;12.076;2022-10-30T04:42:47;12.00;89.30
56498;DHT22;51790;45.558;12.076;2022-10-30T04:48:49;11.60;89.50
56498;DHT22;51790;45.558;12.076;2022-10-30T04:54:50;11.80;89.60
56498;DHT22;51790;45.558;12.076;2022-10-30T05:00:52;11.50;89.70
56498;DHT22;51790;45.558;12.076;2022-10-30T05:07:03;11.60;89.20
56498;DHT22;51790;45.558;12.076;2022-10-30T05:13:04;11.70;89.50
56498;DHT22;51790;45.558;12.076;2022-10-30T05:19:05;11.70;89.00
56498;DHT22;51790;45.558;12.076;2022-10-30T05:25:08;11.70;89.00
56498;DHT22;51790;45.558;12.076;2022-10-30T05:31:10;11.60;88.80
56498;DHT22;51790;45.558;12.076;2022-10-30T05:37:40;11.40;89.40
56498;DHT22;51790;45.558;12.076;2022-10-30T05:43:41;12.00;88.30
56498;DHT22;51790;45.558;12.076;2022-10-30T05:49:43;11.80;88.80
56498;DHT22;51790;45.558;12.076;2022-10-30T05:55:50;11.60;88.20
56498;DHT22;51790;45.558;12.076;2022-10-30T06:01:56;11.40;88.80
56498;DHT22;51790;45.558;12.076;2022-10-30T06:07:58;11.60;88.50
56498;DHT22;51790;45.558;12.076;2022-10-30T06:20:20;11.90;88.10
56498;DHT22;51790;45.558;12.076;2022-10-30T06:26:39;12.00;87.30
56498;DHT22;51790;45.558;12.076;2022-10-30T06:32:44;12.00;87.50
56498;DHT22;51790;45.558;12.076;2022-10-30T06:38:46;11.90;87.90
56498;DHT22;51790;45.558;12.076;2022-10-30T06:44:52;12.60;87.10
56498;DHT22;51790;45.558;12.076;2022-10-30T06:50:54;12.30;88.30
56498;DHT22;51790;45.558;12.076;2022-10-30T07:03:01;12.40;88.20
56498;DHT22;51790;45.558;12.076;2022-10-30T07:09:04;12.50;88.20
56498;DHT22;51790;45.558;12.076;2022-10-30T07:15:07;12.80;88.40
56498;DHT22;51790;45.558;12.076;2022-10-30T07:21:25;13.20;88.30
56498;DHT22;51790;45.558;12.076;2022-10-30T07:27:27;13.50;87.50
56498;DHT22;51790;45.558;12.076;2022-10-30T07:33:39;13.60;87.60
56498;DHT22;51790;45.558;12.076;2022-10-30T07:39:50;13.80;87.80
56498;DHT22;51790;45.558;12.076;2022-10-30T07:45:58;14.10;87.40
56498;DHT22;51790;45.558;12.076;2022-10-30T07:52:18;14.30;87.00
56498;DHT22;51790;45.558;12.076;2022-10-30T07:58:22;14.50;86.40
56498;DHT22;51790;45.558;12.076;2022-10-30T08:04:41;14.70;86.50
56498;DHT22;51790;45.558;12.076;2022-10-30T08:11:03;14.90;85.90
56498;DHT22;51790;45.558;12.076;2022-10-30T08:17:04;15.20;85.40
56498;DHT22;51790;45.558;12.076;2022-10-30T08:23:07;15.40;84.50
56498;DHT22;51790;45.558;12.076;2022-10-30T08:29:10;15.60;84.00
56498;DHT22;51790;45.558;12.076;2022-10-30T08:35:12;15.80;83.50
56498;DHT22;51790;45.558;12.076;2022-10-30T08:41:13;16.10;82.50
56498;DHT22;51790;45.558;12.076;2022-10-30T08:47:19;16.30;81.50
56498;DHT22;51790;45.558;12.076;2022-10-30T08:53:21;16.60;83.50
56498;DHT22;51790;45.558;12.076;2022-10-30T08:59:25;16.80;82.60
56498;DHT22;51790;45.558;12.076;2022-10-30T09:05:29;17.00;81.90
56498;DHT22;51790;45.558;12.076;2022-10-30T09:11:59;17.20;81.40
56498;DHT22;51790;45.558;12.076;2022-10-30T09:18:02;17.30;80.90
56498;DHT22;51790;45.558;12.076;2022-10-30T09:24:04;17.50;79.40
56498;DHT22;51790;45.558;12.076;2022-10-30T09:30:08;17.60;78.80
56498;DHT22;51790;45.558;12.076;2022-10-30T09:36:15;17.90;77.10
56498;DHT22;51790;45.558;12.076;2022-10-30T10:01:09;18.70;75.10
56498;DHT22;51790;45.558;12.076;2022-10-30T10:07:24;18.70;75.10
56498;DHT22;51790;45.558;12.076;2022-10-30T10:13:45;18.80;74.50
56498;DHT22;51790;45.558;12.076;2022-10-30T10:19:57;18.90;73.30
56498;DHT22;51790;45.558;12.076;2022-10-30T10:26:00;19.00;72.40
56498;DHT22;51790;45.558;12.076;2022-10-30T10:38:43;19.40;70.90
56498;DHT22;51790;45.558;12.076;2022-10-30T10:45:08;19.50;70.50
56498;DHT22;51790;45.558;12.076;2022-10-30T10:51:13;19.50;70.90
56498;DHT22;51790;45.558;12.076;2022-10-30T10:57:28;19.70;70.20
56498;DHT22;51790;45.558;12.076;2022-10-30T11:09:50;19.90;69.80
56498;DHT22;51790;45.558;12.076;2022-10-30T11:22:02;20.20;68.50
56498;DHT22;51790;45.558;12.076;2022-10-30T11:28:08;20.20;69.30
56498;DHT22;51790;45.558;12.076;2022-10-30T11:34:35;20.40;68.60
56498;DHT22;51790;45.558;12.076;2022-10-30T11:40:37;20.20;69.90
56498;DHT22;51790;45.558;12.076;2022-10-30T11:46:40;20.30;70.40
56498;DHT22;51790;45.558;12.076;2022-10-30T11:52:42;20.30;69.70
56498;DHT22;51790;45.558;12.076;2022-10-30T11:58:48;20.40;70.30
56498;DHT22;51790;45.558;12.076;2022-10-30T12:04:50;20.60;69.10
56498;DHT22;51790;45.558;12.076;2022-10-30T12:16:56;20.60;69.40
56498;DHT22;51790;45.558;12.076;2022-10-30T12:22:58;21.00;69.50
56498;DHT22;51790;45.558;12.076;2022-10-30T12:29:11;21.00;69.10
56498;DHT22;51790;45.558;12.076;2022-10-30T12:35:23;21.00;68.50
56498;DHT22;51790;45.558;12.076;2022-10-30T12:41:32;21.30;68.40
56498;DHT22;51790;45.558;12.076;2022-10-30T12:47:38;21.10;68.90
56498;DHT22;51790;45.558;12.076;2022-10-30T12:53:42;21.20;68.20
56498;DHT22;51790;45.558;12.076;2022-10-30T13:05:54;21.20;67.40
56498;DHT22;51790;45.558;12.076;2022-10-30T13:12:09;21.20;67.20
56498;DHT22;51790;45.558;12.076;2022-10-30T13:18:17;21.10;67.40
56498;DHT22;51790;45.558;12.076;2022-10-30T13:24:21;21.30;67.10
56498;DHT22;51790;45.558;12.076;2022-10-30T13:30:29;21.50;66.40
56498;DHT22;51790;45.558;12.076;2022-10-30T13:48:42;21.60;66.20
56498;DHT22;51790;45.558;12.076;2022-10-30T13:54:58;21.70;65.00
56498;DHT22;51790;45.558;12.076;2022-10-30T14:26:20;22.10;65.10
56498;DHT22;51790;45.558;12.076;2022-10-30T14:38:23;21.10;67.60
56498;DHT22;51790;45.558;12.076;2022-10-30T14:50:54;21.20;68.70
56498;DHT22;51790;45.558;12.076;2022-10-30T14:56:56;20.90;68.60
56498;DHT22;51790;45.558;12.076;2022-10-30T15:09:05;20.80;69.40
56498;DHT22;51790;45.558;12.076;2022-10-30T15:15:11;20.40;70.50
56498;DHT22;51790;45.558;12.076;2022-10-30T15:21:16;20.80;72.30
56498;DHT22;51790;45.558;12.076;2022-10-30T15:27:20;20.80;70.70
56498;DHT22;51790;45.558;12.076;2022-10-30T15:33:23;20.80;70.00
56498;DHT22;51790;45.558;12.076;2022-10-30T15:39:24;20.50;70.50
56498;DHT22;51790;45.558;12.076;2022-10-30T15:45:32;20.40;70.60
56498;DHT22;51790;45.558;12.076;2022-10-30T15:51:34;19.70;73.50
56498;DHT22;51790;45.558;12.076;2022-10-30T15:57:50;20.10;72.80
56498;DHT22;51790;45.558;12.076;2022-10-30T16:03:53;19.30;75.90
56498;DHT22;51790;45.558;12.076;2022-10-30T16:09:55;19.20;76.70
56498;DHT22;51790;45.558;12.076;2022-10-30T16:15:56;19.20;77.50
56498;DHT22;51790;45.558;12.076;2022-10-30T16:21:58;18.90;77.80
56498;DHT22;51790;45.558;12.076;2022-10-30T16:27:59;19.10;77.80
56498;DHT22;51790;45.558;12.076;2022-10-30T16:34:01;18.50;80.80
56498;DHT22;51790;45.558;12.076;2022-10-30T16:40:11;18.30;81.00
56498;DHT22;51790;45.558;12.076;2022-10-30T16:52:14;18.50;80.50
56498;DHT22;51790;45.558;12.076;2022-10-30T16:58:16;18.30;81.00
56498;DHT22;51790;45.558;12.076;2022-10-30T17:04:19;18.10;81.80
56498;DHT22;51790;45.558;12.076;2022-10-30T17:10:42;18.20;81.30
56498;DHT22;51790;45.558;12.076;2022-10-30T17:28:45;18.20;81.30
56498;DHT22;51790;45.558;12.076;2022-10-30T17:34:47;17.70;83.90
56498;DHT22;51790;45.558;12.076;2022-10-30T17:46:50;17.70;83.50
56498;DHT22;51790;45.558;12.076;2022-10-30T17:52:52;17.60;84.80
56498;DHT22;51790;45.558;12.076;2022-10-30T17:58:54;17.20;85.90
56498;DHT22;51790;45.558;12.076;2022-10-30T18:04:55;17.20;85.80
56498;DHT22;51790;45.558;12.076;2022-10-30T18:10:56;16.70;86.90
56498;DHT22;51790;45.558;12.076;2022-10-30T18:16:58;17.00;85.70
56498;DHT22;51790;45.558;12.076;2022-10-30T18:22:59;16.80;86.40
56498;DHT22;51790;45.558;12.076;2022-10-30T18:29:00;17.00;85.60
56498;DHT22;51790;45.558;12.076;2022-10-30T18:35:08;16.90;86.40
56498;DHT22;51790;45.558;12.076;2022-10-30T18:41:14;16.30;88.20
56498;DHT22;51790;45.558;12.076;2022-10-30T18:47:17;16.80;85.90
56498;DHT22;51790;45.558;12.076;2022-10-30T18:53:18;16.80;85.80
56498;DHT22;51790;45.558;12.076;2022-10-30T19:11:23;16.90;87.20
56498;DHT22;51790;45.558;12.076;2022-10-30T19:41:32;16.80;85.10
56498;DHT22;51790;45.558;12.076;2022-10-30T19:47:34;16.10;87.40
56498;DHT22;51790;45.558;12.076;2022-10-30T19:53:36;15.90;88.50
56498;DHT22;51790;45.558;12.076;2022-10-30T19:59:38;15.70;89.10
56498;DHT22;51790;45.558;12.076;2022-10-30T20:05:40;18.00;80.70
56498;DHT22;51790;45.558;12.076;2022-10-30T20:11:42;18.20;80.00
56498;DHT22;51790;45.558;12.076;2022-10-30T20:17:44;16.60;84.60
56498;DHT22;51790;45.558;12.076;2022-10-30T20:23:45;16.10;86.80
56498;DHT22;51790;45.558;12.076;2022-10-30T20:35:49;16.30;84.70
56498;DHT22;51790;45.558;12.076;2022-10-30T20:41:52;15.60;86.90
56498;DHT22;51790;45.558;12.076;2022-10-30T20:53:55;15.30;87.90
56498;DHT22;51790;45.558;12.076;2022-10-30T20:59:56;15.80;85.80
56498;DHT22;51790;45.558;12.076;2022-10-30T21:05:58;15.80;85.90
56498;DHT22;51790;45.558;12.076;2022-10-30T21:11:59;15.30;87.70
56498;DHT22;51790;45.558;12.076;2022-10-30T21:18:01;14.90;88.40
56498;DHT22;51790;45.558;12.076;2022-10-30T21:24:02;14.80;89.50
56498;DHT22;51790;45.558;12.076;2022-10-30T21:30:03;14.90;89.00
56498;DHT22;51790;45.558;12.076;2022-10-30T21:36:05;15.20;87.00
56498;DHT22;51790;45.558;12.076;2022-10-30T21:42:08;15.10;88.20
56498;DHT22;51790;45.558;12.076;2022-10-30T21:48:09;15.10;87.80
56498;DHT22;51790;45.558;12.076;2022-10-30T21:54:10;14.50;89.20
56498;DHT22;51790;45.558;12.076;2022-10-30T22:00:12;15.30;86.80
56498;DHT22;51790;45.558;12.076;2022-10-30T22:06:15;15.30;85.80
56498;DHT22;51790;45.558;12.076;2022-10-30T22:12:16;15.20;86.50
56498;DHT22;51790;45.558;12.076;2022-10-30T22:18:19;15.10;87.80
56498;DHT22;51790;45.558;12.076;2022-10-30T22:24:20;14.70;88.60
56498;DHT22;51790;45.558;12.076;2022-10-30T22:36:23;15.00;87.00
56498;DHT22;51790;45.558;12.076;2022-10-30T22:42:25;14.70;87.40
56498;DHT22;51790;45.558;12.076;2022-10-30T22:48:26;14.80;86.30
56498;DHT22;51790;45.558;12.076;2022-10-30T22:54:27;14.80;86.90
56498;DHT22;51790;45.558;12.076;2022-10-30T23:08:27;14.00;88.90
56498;DHT22;51790;45.558;12.076;2022-10-30T23:14:28;13.90;88.90
56498;DHT22;51790;45.558;12.076;2022-10-30T23:20:29;14.70;86.00
56498;DHT22;51790;45.558;12.076;2022-10-30T23:26:32;14.50;86.10
56498;DHT22;51790;45.558;12.076;2022-10-30T23:32:33;13.70;88.60
56498;DHT22;51790;45.558;12.076;2022-10-30T23:38:34;14.50;86.10
56498;DHT22;51790;45.558;12.076;2022-10-30T23:44:35;14.40;86.50
56498;DHT22;51790;45.558;12.076;2022-10-30T23:50:37;13.90;88.40
